sensor_id;sensor_type;location;lat;lon;timestamp;pressure;altitude;pressure_sealevel;temperature;humidity
35489;BME280;21602;55.670;37.578;2023-04-06T00:02:03;99858.41;;;6.18;79.35
35489;BME280;21602;55.670;37.578;2023-04-06T00:04:28;99864.72;;;6.16;79.43
35489;BME280;21602;55.670;37.578;2023-04-06T00:06:54;99853.72;;;6.20;79.80
35489;BME280;21602;55.670;37.578;2023-04-06T00:09:20;99860.44;;;6.15;79.64
35489;BME280;21602;55.670;37.578;2023-04-06T00:11:46;99859.25;;;6.18;79.77
35489;BME280;21602;55.670;37.578;2023-04-06T00:14:12;99862.88;;;6.17;79.73
35489;BME280;21602;55.670;37.578;2023-04-06T00:16:39;99862.84;;;6.10;79.85
35489;BME280;21602;55.670;37.578;2023-04-06T00:19:05;99864.63;;;6.03;79.81
35489;BME280;21602;55.670;37.578;2023-04-06T00:21:31;99855.41;;;5.99;80.26
35489;BME280;21602;55.670;37.578;2023-04-06T00:23:58;99866.25;;;6.04;80.16
35489;BME280;21602;55.670;37.578;2023-04-06T00:26:25;99867.91;;;6.05;80.29
35489;BME280;21602;55.670;37.578;2023-04-06T00:28:53;99861.97;;;6.03;80.08
35489;BME280;21602;55.670;37.578;2023-04-06T00:31:19;99868.09;;;6.04;80.21
35489;BME280;21602;55.670;37.578;2023-04-06T00:33:45;99867.06;;;6.05;80.36
35489;BME280;21602;55.670;37.578;2023-04-06T00:36:10;99859.25;;;5.97;80.50
35489;BME280;21602;55.670;37.578;2023-04-06T00:38:36;99868.22;;;5.96;80.29
35489;BME280;21602;55.670;37.578;2023-04-06T00:41:04;99857.81;;;5.94;80.77
35489;BME280;21602;55.670;37.578;2023-04-06T00:43:31;99866.84;;;6.00;80.59
35489;BME280;21602;55.670;37.578;2023-04-06T00:45:57;99863.03;;;6.09;80.56
35489;BME280;21602;55.670;37.578;2023-04-06T00:48:24;99859.75;;;6.07;80.23
35489;BME280;21602;55.670;37.578;2023-04-06T00:50:51;99857.25;;;5.99;80.43
35489;BME280;21602;55.670;37.578;2023-04-06T00:53:17;99868.66;;;5.99;80.33
35489;BME280;21602;55.670;37.578;2023-04-06T00:55:43;99867.03;;;5.98;80.77
35489;BME280;21602;55.670;37.578;2023-04-06T00:58:10;99853.78;;;5.98;80.79
35489;BME280;21602;55.670;37.578;2023-04-06T01:00:44;99862.31;;;5.94;80.79
35489;BME280;21602;55.670;37.578;2023-04-06T01:03:16;99856.28;;;5.85;81.01
35489;BME280;21602;55.670;37.578;2023-04-06T01:05:43;99858.94;;;5.85;80.93
35489;BME280;21602;55.670;37.578;2023-04-06T01:08:24;99848.94;;;5.87;80.84
35489;BME280;21602;55.670;37.578;2023-04-06T01:10:55;99854.34;;;5.94;80.96
35489;BME280;21602;55.670;37.578;2023-04-06T01:13:24;99849.09;;;6.00;80.69
35489;BME280;21602;55.670;37.578;2023-04-06T01:15:53;99861.97;;;6.03;80.31
35489;BME280;21602;55.670;37.578;2023-04-06T01:18:28;99848.06;;;6.01;80.51
35489;BME280;21602;55.670;37.578;2023-04-06T01:21:17;99851.38;;;6.03;80.76
35489;BME280;21602;55.670;37.578;2023-04-06T01:23:57;99853.38;;;6.01;80.43
35489;BME280;21602;55.670;37.578;2023-04-06T01:26:30;99854.41;;;6.00;80.40
35489;BME280;21602;55.670;37.578;2023-04-06T01:28:59;99847.47;;;5.99;80.45
35489;BME280;21602;55.670;37.578;2023-04-06T01:31:28;99850.72;;;6.01;80.33
35489;BME280;21602;55.670;37.578;2023-04-06T01:33:54;99850.72;;;6.01;80.19
35489;BME280;21602;55.670;37.578;2023-04-06T01:36:23;99848.28;;;6.00;80.78
35489;BME280;21602;55.670;37.578;2023-04-06T01:38:57;99841.16;;;6.00;80.43
35489;BME280;21602;55.670;37.578;2023-04-06T01:41:32;99844.81;;;5.99;80.83
35489;BME280;21602;55.670;37.578;2023-04-06T01:44:01;99843.66;;;5.87;80.41
35489;BME280;21602;55.670;37.578;2023-04-06T01:46:28;99843.16;;;5.77;80.55
35489;BME280;21602;55.670;37.578;2023-04-06T01:48:55;99840.69;;;5.75;80.98
35489;BME280;21602;55.670;37.578;2023-04-06T01:51:41;99845.44;;;5.80;81.01
35489;BME280;21602;55.670;37.578;2023-04-06T01:54:11;99841.56;;;5.82;81.10
35489;BME280;21602;55.670;37.578;2023-04-06T01:56:51;99848.13;;;5.86;80.98
35489;BME280;21602;55.670;37.578;2023-04-06T01:59:26;99839.16;;;5.87;80.82
35489;BME280;21602;55.670;37.578;2023-04-06T02:01:52;99844.66;;;5.86;80.93
35489;BME280;21602;55.670;37.578;2023-04-06T02:04:18;99837.81;;;5.70;80.86
35489;BME280;21602;55.670;37.578;2023-04-06T02:06:48;99846.88;;;5.61;81.14
35489;BME280;21602;55.670;37.578;2023-04-06T02:09:17;99858.28;;;5.61;81.02
35489;BME280;21602;55.670;37.578;2023-04-06T02:11:43;99858.91;;;5.63;81.34
35489;BME280;21602;55.670;37.578;2023-04-06T02:14:09;99855.91;;;5.67;81.07
35489;BME280;21602;55.670;37.578;2023-04-06T02:16:40;99848.84;;;5.52;81.45
35489;BME280;21602;55.670;37.578;2023-04-06T02:19:06;99857.16;;;5.49;81.65
35489;BME280;21602;55.670;37.578;2023-04-06T02:21:33;99844.72;;;5.50;81.78
35489;BME280;21602;55.670;37.578;2023-04-06T02:23:59;99860.81;;;5.48;81.71
35489;BME280;21602;55.670;37.578;2023-04-06T02:26:27;99856.69;;;5.46;81.69
35489;BME280;21602;55.670;37.578;2023-04-06T02:28:53;99865.75;;;5.51;81.66
35489;BME280;21602;55.670;37.578;2023-04-06T02:31:19;99853.47;;;5.50;81.44
35489;BME280;21602;55.670;37.578;2023-04-06T02:33:45;99856.53;;;5.47;81.97
35489;BME280;21602;55.670;37.578;2023-04-06T02:36:13;99868.13;;;5.46;81.93
35489;BME280;21602;55.670;37.578;2023-04-06T02:38:40;99871.19;;;5.50;81.91
35489;BME280;21602;55.670;37.578;2023-04-06T02:41:06;99871.50;;;5.40;81.93
35489;BME280;21602;55.670;37.578;2023-04-06T02:43:32;99876.53;;;5.35;81.76
35489;BME280;21602;55.670;37.578;2023-04-06T02:46:14;99875.53;;;5.36;81.98
35489;BME280;21602;55.670;37.578;2023-04-06T02:48:40;99881.03;;;5.34;82.25
35489;BME280;21602;55.670;37.578;2023-04-06T02:51:06;99880.19;;;5.34;82.11
35489;BME280;21602;55.670;37.578;2023-04-06T02:53:32;99886.13;;;5.36;82.25
35489;BME280;21602;55.670;37.578;2023-04-06T02:55:58;99883.31;;;5.37;82.25
35489;BME280;21602;55.670;37.578;2023-04-06T02:58:32;99891.06;;;5.39;82.03
35489;BME280;21602;55.670;37.578;2023-04-06T03:00:58;99880.56;;;5.31;81.83
35489;BME280;21602;55.670;37.578;2023-04-06T03:03:24;99883.97;;;5.25;82.16
35489;BME280;21602;55.670;37.578;2023-04-06T03:05:50;99886.41;;;5.26;82.46
35489;BME280;21602;55.670;37.578;2023-04-06T03:08:24;99896.56;;;5.23;82.21
35489;BME280;21602;55.670;37.578;2023-04-06T03:10:50;99892.81;;;5.17;82.35
35489;BME280;21602;55.670;37.578;2023-04-06T03:13:17;99899.69;;;5.11;82.56
35489;BME280;21602;55.670;37.578;2023-04-06T03:15:55;99885.72;;;5.18;82.70
35489;BME280;21602;55.670;37.578;2023-04-06T03:18:23;99897.56;;;5.22;82.32
35489;BME280;21602;55.670;37.578;2023-04-06T03:20:51;99884.97;;;5.24;82.45
35489;BME280;21602;55.670;37.578;2023-04-06T03:23:26;99893.38;;;5.27;82.05
35489;BME280;21602;55.670;37.578;2023-04-06T03:25:56;99897.25;;;5.31;82.04
35489;BME280;21602;55.670;37.578;2023-04-06T03:28:22;99899.81;;;5.39;81.88
35489;BME280;21602;55.670;37.578;2023-04-06T03:30:53;99895.22;;;5.48;81.61
35489;BME280;21602;55.670;37.578;2023-04-06T03:33:35;99901.28;;;5.42;81.16
35489;BME280;21602;55.670;37.578;2023-04-06T03:36:01;99904.28;;;5.39;81.54
35489;BME280;21602;55.670;37.578;2023-04-06T03:38:27;99915.25;;;5.36;82.34
35489;BME280;21602;55.670;37.578;2023-04-06T03:40:54;99913.88;;;5.40;81.88
35489;BME280;21602;55.670;37.578;2023-04-06T03:43:24;99913.97;;;5.47;82.06
35489;BME280;21602;55.670;37.578;2023-04-06T03:45:50;99923.59;;;5.54;81.81
35489;BME280;21602;55.670;37.578;2023-04-06T03:48:16;99919.47;;;5.67;82.01
35489;BME280;21602;55.670;37.578;2023-04-06T03:50:42;99923.50;;;5.62;80.79
35489;BME280;21602;55.670;37.578;2023-04-06T03:53:08;99918.81;;;5.64;82.51
35489;BME280;21602;55.670;37.578;2023-04-06T03:55:34;99919.28;;;5.68;81.51
35489;BME280;21602;55.670;37.578;2023-04-06T03:58:00;99920.50;;;5.65;81.00
35489;BME280;21602;55.670;37.578;2023-04-06T04:00:26;99925.78;;;5.65;80.75
35489;BME280;21602;55.670;37.578;2023-04-06T04:02:54;99927.94;;;5.77;81.20
35489;BME280;21602;55.670;37.578;2023-04-06T04:05:20;99929.41;;;5.79;81.35
35489;BME280;21602;55.670;37.578;2023-04-06T04:07:52;99931.09;;;5.65;80.80
35489;BME280;21602;55.670;37.578;2023-04-06T04:10:21;99930.44;;;5.63;80.63
35489;BME280;21602;55.670;37.578;2023-04-06T04:12:47;99938.91;;;5.74;81.12
35489;BME280;21602;55.670;37.578;2023-04-06T04:15:13;99940.06;;;5.86;81.86
35489;BME280;21602;55.670;37.578;2023-04-06T04:17:39;99935.78;;;5.85;80.07
35489;BME280;21602;55.670;37.578;2023-04-06T04:20:05;99935.38;;;5.88;80.16
35489;BME280;21602;55.670;37.578;2023-04-06T04:22:31;99946.38;;;5.85;79.95
35489;BME280;21602;55.670;37.578;2023-04-06T04:24:59;99941.06;;;5.85;80.47
35489;BME280;21602;55.670;37.578;2023-04-06T04:27:28;99940.63;;;5.81;80.29
35489;BME280;21602;55.670;37.578;2023-04-06T04:29:54;99936.00;;;5.69;79.94
35489;BME280;21602;55.670;37.578;2023-04-06T04:32:20;99944.59;;;5.71;80.19
35489;BME280;21602;55.670;37.578;2023-04-06T04:34:47;99936.13;;;5.82;80.40
35489;BME280;21602;55.670;37.578;2023-04-06T04:37:23;99935.50;;;5.95;79.71
35489;BME280;21602;55.670;37.578;2023-04-06T04:39:53;99948.78;;;6.01;79.24
35489;BME280;21602;55.670;37.578;2023-04-06T04:42:19;99943.28;;;6.03;79.01
35489;BME280;21602;55.670;37.578;2023-04-06T04:44:49;99933.03;;;6.14;80.14
35489;BME280;21602;55.670;37.578;2023-04-06T04:47:25;99944.69;;;6.20;77.96
35489;BME280;21602;55.670;37.578;2023-04-06T04:49:51;99935.06;;;6.12;78.04
35489;BME280;21602;55.670;37.578;2023-04-06T04:52:22;99939.84;;;6.24;78.24
35489;BME280;21602;55.670;37.578;2023-04-06T04:54:56;99945.25;;;6.37;78.79
35489;BME280;21602;55.670;37.578;2023-04-06T04:57:26;99944.84;;;6.40;77.12
35489;BME280;21602;55.670;37.578;2023-04-06T04:59:54;99942.75;;;6.57;79.64
35489;BME280;21602;55.670;37.578;2023-04-06T05:02:21;99936.09;;;6.67;79.61
35489;BME280;21602;55.670;37.578;2023-04-06T05:04:59;99945.69;;;6.68;78.50
35489;BME280;21602;55.670;37.578;2023-04-06T05:07:28;99941.78;;;6.64;77.21
35489;BME280;21602;55.670;37.578;2023-04-06T05:09:57;99943.03;;;6.68;77.24
35489;BME280;21602;55.670;37.578;2023-04-06T05:12:26;99940.22;;;6.77;76.46
35489;BME280;21602;55.670;37.578;2023-04-06T05:15:08;99936.28;;;6.94;77.98
35489;BME280;21602;55.670;37.578;2023-04-06T05:17:35;99942.56;;;6.93;75.88
35489;BME280;21602;55.670;37.578;2023-04-06T05:20:05;99947.38;;;7.11;76.10
35489;BME280;21602;55.670;37.578;2023-04-06T05:22:38;99947.66;;;7.23;76.75
35489;BME280;21602;55.670;37.578;2023-04-06T05:25:08;99949.91;;;7.26;76.04
35489;BME280;21602;55.670;37.578;2023-04-06T05:27:34;99951.19;;;7.36;75.65
35489;BME280;21602;55.670;37.578;2023-04-06T05:30:06;99940.34;;;7.38;76.42
35489;BME280;21602;55.670;37.578;2023-04-06T05:32:38;99946.75;;;7.50;76.38
35489;BME280;21602;55.670;37.578;2023-04-06T05:35:04;99945.19;;;7.76;75.45
35489;BME280;21602;55.670;37.578;2023-04-06T05:37:31;99940.28;;;7.73;73.88
35489;BME280;21602;55.670;37.578;2023-04-06T05:39:58;99948.81;;;7.61;72.00
35489;BME280;21602;55.670;37.578;2023-04-06T05:42:24;99948.75;;;7.41;72.88
35489;BME280;21602;55.670;37.578;2023-04-06T05:44:53;99947.09;;;7.34;73.24
35489;BME280;21602;55.670;37.578;2023-04-06T05:47:19;99945.31;;;7.54;76.38
35489;BME280;21602;55.670;37.578;2023-04-06T05:49:50;99956.00;;;7.67;71.46
35489;BME280;21602;55.670;37.578;2023-04-06T05:52:32;99955.78;;;7.69;72.56
35489;BME280;21602;55.670;37.578;2023-04-06T05:55:00;99952.34;;;7.75;73.54
35489;BME280;21602;55.670;37.578;2023-04-06T05:57:26;99944.59;;;7.87;73.51
35489;BME280;21602;55.670;37.578;2023-04-06T05:59:53;99951.19;;;8.04;73.15
35489;BME280;21602;55.670;37.578;2023-04-06T06:02:21;99959.59;;;8.14;71.64
35489;BME280;21602;55.670;37.578;2023-04-06T06:04:50;99951.41;;;8.23;71.21
35489;BME280;21602;55.670;37.578;2023-04-06T06:07:17;99948.75;;;8.29;72.67
35489;BME280;21602;55.670;37.578;2023-04-06T06:09:51;99955.53;;;8.52;72.16
35489;BME280;21602;55.670;37.578;2023-04-06T06:12:25;99957.16;;;8.33;69.56
35489;BME280;21602;55.670;37.578;2023-04-06T06:14:51;99945.66;;;8.26;70.79
35489;BME280;21602;55.670;37.578;2023-04-06T06:17:18;99960.41;;;8.28;70.01
35489;BME280;21602;55.670;37.578;2023-04-06T06:19:46;99952.44;;;8.35;70.06
35489;BME280;21602;55.670;37.578;2023-04-06T06:22:12;99946.50;;;8.33;69.89
35489;BME280;21602;55.670;37.578;2023-04-06T06:24:41;99942.44;;;8.37;70.42
35489;BME280;21602;55.670;37.578;2023-04-06T06:27:08;99943.25;;;8.37;68.91
35489;BME280;21602;55.670;37.578;2023-04-06T06:29:35;99946.31;;;8.28;70.10
35489;BME280;21602;55.670;37.578;2023-04-06T06:32:01;99942.00;;;8.27;69.13
35489;BME280;21602;55.670;37.578;2023-04-06T06:34:27;99950.84;;;8.47;69.76
35489;BME280;21602;55.670;37.578;2023-04-06T06:36:56;99949.81;;;8.75;69.88
35489;BME280;21602;55.670;37.578;2023-04-06T06:39:22;99938.31;;;8.94;68.65
35489;BME280;21602;55.670;37.578;2023-04-06T06:41:49;99934.41;;;8.90;68.22
35489;BME280;21602;55.670;37.578;2023-04-06T06:44:16;99942.13;;;9.11;68.66
35489;BME280;21602;55.670;37.578;2023-04-06T06:46:42;99943.53;;;9.27;66.89
35489;BME280;21602;55.670;37.578;2023-04-06T06:49:08;99935.13;;;9.23;66.84
35489;BME280;21602;55.670;37.578;2023-04-06T06:51:35;99935.53;;;9.27;65.63
35489;BME280;21602;55.670;37.578;2023-04-06T06:54:01;99945.75;;;9.37;66.13
35489;BME280;21602;55.670;37.578;2023-04-06T06:56:27;99938.78;;;9.36;65.52
35489;BME280;21602;55.670;37.578;2023-04-06T06:58:54;99940.44;;;9.37;65.74
35489;BME280;21602;55.670;37.578;2023-04-06T07:01:20;99937.75;;;9.37;64.98
35489;BME280;21602;55.670;37.578;2023-04-06T07:03:46;99941.19;;;9.44;64.48
35489;BME280;21602;55.670;37.578;2023-04-06T07:06:12;99939.56;;;9.43;64.06
35489;BME280;21602;55.670;37.578;2023-04-06T07:08:39;99940.97;;;9.52;65.32
35489;BME280;21602;55.670;37.578;2023-04-06T07:11:06;99939.25;;;9.71;66.33
35489;BME280;21602;55.670;37.578;2023-04-06T07:13:32;99941.38;;;9.87;63.13
35489;BME280;21602;55.670;37.578;2023-04-06T07:15:59;99942.19;;;9.94;63.08
35489;BME280;21602;55.670;37.578;2023-04-06T07:18:27;99937.50;;;9.90;62.86
35489;BME280;21602;55.670;37.578;2023-04-06T07:20:53;99936.44;;;9.91;65.00
35489;BME280;21602;55.670;37.578;2023-04-06T07:23:19;99936.78;;;10.01;62.18
35489;BME280;21602;55.670;37.578;2023-04-06T07:25:45;99932.81;;;10.17;61.80
35489;BME280;21602;55.670;37.578;2023-04-06T07:28:11;99940.94;;;10.29;62.31
35489;BME280;21602;55.670;37.578;2023-04-06T07:30:37;99939.91;;;10.30;61.64
35489;BME280;21602;55.670;37.578;2023-04-06T07:33:04;99937.19;;;10.36;62.05
35489;BME280;21602;55.670;37.578;2023-04-06T07:35:32;99941.16;;;10.20;60.59
35489;BME280;21602;55.670;37.578;2023-04-06T07:37:58;99936.88;;;10.19;61.63
35489;BME280;21602;55.670;37.578;2023-04-06T07:40:24;99935.03;;;10.27;60.70
35489;BME280;21602;55.670;37.578;2023-04-06T07:42:52;99939.16;;;10.47;62.44
35489;BME280;21602;55.670;37.578;2023-04-06T07:45:18;99942.16;;;10.83;61.57
35489;BME280;21602;55.670;37.578;2023-04-06T07:47:45;99938.50;;;11.14;60.00
35489;BME280;21602;55.670;37.578;2023-04-06T07:50:12;99934.28;;;11.24;59.00
35489;BME280;21602;55.670;37.578;2023-04-06T07:52:39;99933.25;;;11.07;57.75
35489;BME280;21602;55.670;37.578;2023-04-06T07:55:06;99948.66;;;10.87;58.61
35489;BME280;21602;55.670;37.578;2023-04-06T07:57:35;99939.91;;;10.80;58.99
35489;BME280;21602;55.670;37.578;2023-04-06T08:00:01;99947.53;;;10.76;58.73
35489;BME280;21602;55.670;37.578;2023-04-06T08:02:29;99953.28;;;10.55;58.42
35489;BME280;21602;55.670;37.578;2023-04-06T08:04:55;99952.25;;;10.56;58.37
35489;BME280;21602;55.670;37.578;2023-04-06T08:07:23;99940.50;;;10.57;58.67
35489;BME280;21602;55.670;37.578;2023-04-06T08:09:50;99946.81;;;10.62;58.14
35489;BME280;21602;55.670;37.578;2023-04-06T08:12:16;99945.34;;;10.66;57.41
35489;BME280;21602;55.670;37.578;2023-04-06T08:14:42;99935.72;;;10.65;58.08
35489;BME280;21602;55.670;37.578;2023-04-06T08:17:07;99945.97;;;10.68;57.86
35489;BME280;21602;55.670;37.578;2023-04-06T08:19:33;99937.97;;;10.87;57.64
35489;BME280;21602;55.670;37.578;2023-04-06T08:21:59;99936.78;;;11.01;57.46
35489;BME280;21602;55.670;37.578;2023-04-06T08:24:25;99946.38;;;11.09;57.10
35489;BME280;21602;55.670;37.578;2023-04-06T08:26:52;99949.59;;;11.17;56.69
35489;BME280;21602;55.670;37.578;2023-04-06T08:29:18;99941.28;;;11.25;56.58
35489;BME280;21602;55.670;37.578;2023-04-06T08:31:45;99934.06;;;11.26;56.49
35489;BME280;21602;55.670;37.578;2023-04-06T08:34:11;99941.75;;;11.34;55.98
35489;BME280;21602;55.670;37.578;2023-04-06T08:36:39;99933.22;;;11.44;55.97
35489;BME280;21602;55.670;37.578;2023-04-06T08:39:06;99929.66;;;11.50;55.54
35489;BME280;21602;55.670;37.578;2023-04-06T08:41:32;99937.06;;;11.48;54.85
35489;BME280;21602;55.670;37.578;2023-04-06T08:44:02;99937.06;;;11.48;55.05
35489;BME280;21602;55.670;37.578;2023-04-06T08:46:31;99929.56;;;11.57;55.86
35489;BME280;21602;55.670;37.578;2023-04-06T08:49:01;99936.25;;;11.66;55.03
35489;BME280;21602;55.670;37.578;2023-04-06T08:51:29;99933.91;;;11.88;55.70
35489;BME280;21602;55.670;37.578;2023-04-06T08:53:59;99933.25;;;12.04;53.75
35489;BME280;21602;55.670;37.578;2023-04-06T08:56:27;99928.28;;;12.08;54.32
35489;BME280;21602;55.670;37.578;2023-04-06T08:58:54;99929.94;;;12.20;55.21
35489;BME280;21602;55.670;37.578;2023-04-06T09:01:21;99929.25;;;12.48;56.22
35489;BME280;21602;55.670;37.578;2023-04-06T09:03:49;99921.69;;;12.57;54.22
35489;BME280;21602;55.670;37.578;2023-04-06T09:06:17;99929.28;;;12.60;53.35
35489;BME280;21602;55.670;37.578;2023-04-06T09:08:44;99926.38;;;12.73;53.15
35489;BME280;21602;55.670;37.578;2023-04-06T09:11:10;99934.63;;;12.84;52.74
35489;BME280;21602;55.670;37.578;2023-04-06T09:13:50;99928.00;;;12.74;52.26
35489;BME280;21602;55.670;37.578;2023-04-06T09:16:17;99918.56;;;12.84;52.81
35489;BME280;21602;55.670;37.578;2023-04-06T09:18:43;99930.56;;;12.81;52.78
35489;BME280;21602;55.670;37.578;2023-04-06T09:21:10;99925.19;;;12.81;52.06
35489;BME280;21602;55.670;37.578;2023-04-06T09:23:37;99915.28;;;12.93;53.77
35489;BME280;21602;55.670;37.578;2023-04-06T09:26:13;99917.47;;;13.08;51.66
35489;BME280;21602;55.670;37.578;2023-04-06T09:28:57;99913.53;;;13.22;50.42
35489;BME280;21602;55.670;37.578;2023-04-06T09:31:28;99925.25;;;13.33;50.52
35489;BME280;21602;55.670;37.578;2023-04-06T09:33:55;99917.56;;;13.37;50.32
35489;BME280;21602;55.670;37.578;2023-04-06T09:36:34;99917.31;;;13.38;50.42
35489;BME280;21602;55.670;37.578;2023-04-06T09:39:03;99918.13;;;13.39;50.28
35489;BME280;21602;55.670;37.578;2023-04-06T09:41:34;99915.19;;;13.52;49.26
35489;BME280;21602;55.670;37.578;2023-04-06T09:44:05;99908.97;;;13.63;50.72
35489;BME280;21602;55.670;37.578;2023-04-06T09:46:36;99920.25;;;13.37;49.17
35489;BME280;21602;55.670;37.578;2023-04-06T09:49:03;99911.13;;;13.38;49.51
35489;BME280;21602;55.670;37.578;2023-04-06T09:51:53;99906.16;;;13.29;49.45
35489;BME280;21602;55.670;37.578;2023-04-06T09:54:22;99909.06;;;13.40;49.71
35489;BME280;21602;55.670;37.578;2023-04-06T09:56:57;99919.22;;;13.14;48.13
35489;BME280;21602;55.670;37.578;2023-04-06T10:00:02;99911.09;;;12.97;48.46
35489;BME280;21602;55.670;37.578;2023-04-06T10:05:38;99913.81;;;13.49;51.43
35489;BME280;21602;55.670;37.578;2023-04-06T10:08:11;99896.41;;;13.52;48.76
35489;BME280;21602;55.670;37.578;2023-04-06T10:10:37;99908.25;;;13.39;48.24
35489;BME280;21602;55.670;37.578;2023-04-06T10:13:04;99900.91;;;13.35;48.45
35489;BME280;21602;55.670;37.578;2023-04-06T10:15:30;99895.66;;;13.40;49.50
35489;BME280;21602;55.670;37.578;2023-04-06T10:17:58;99903.53;;;13.46;48.08
35489;BME280;21602;55.670;37.578;2023-04-06T10:20:47;99906.31;;;13.51;49.76
35489;BME280;21602;55.670;37.578;2023-04-06T10:23:26;99908.34;;;13.44;47.33
35489;BME280;21602;55.670;37.578;2023-04-06T10:25:57;99914.84;;;13.48;48.31
35489;BME280;21602;55.670;37.578;2023-04-06T10:28:24;99903.72;;;13.56;48.40
35489;BME280;21602;55.670;37.578;2023-04-06T10:30:57;99907.63;;;13.49;47.69
35489;BME280;21602;55.670;37.578;2023-04-06T10:33:24;99901.63;;;13.30;48.00
35489;BME280;21602;55.670;37.578;2023-04-06T10:35:50;99898.31;;;13.40;47.91
35489;BME280;21602;55.670;37.578;2023-04-06T10:38:16;99904.63;;;13.33;47.52
35489;BME280;21602;55.670;37.578;2023-04-06T10:40:46;99905.13;;;13.30;47.37
35489;BME280;21602;55.670;37.578;2023-04-06T10:43:19;99909.88;;;13.28;47.66
35489;BME280;21602;55.670;37.578;2023-04-06T10:45:55;99908.25;;;13.39;47.23
35489;BME280;21602;55.670;37.578;2023-04-06T10:48:22;99889.41;;;13.51;48.88
35489;BME280;21602;55.670;37.578;2023-04-06T10:50:53;99904.16;;;13.65;47.29
35489;BME280;21602;55.670;37.578;2023-04-06T10:53:25;99896.31;;;13.75;46.83
35489;BME280;21602;55.670;37.578;2023-04-06T10:55:56;99894.22;;;13.77;47.12
35489;BME280;21602;55.670;37.578;2023-04-06T10:58:26;99897.09;;;13.76;46.79
35489;BME280;21602;55.670;37.578;2023-04-06T11:00:53;99882.03;;;13.87;47.23
35489;BME280;21602;55.670;37.578;2023-04-06T11:03:19;99892.59;;;13.93;46.92
35489;BME280;21602;55.670;37.578;2023-04-06T11:05:50;99892.13;;;13.96;47.84
35489;BME280;21602;55.670;37.578;2023-04-06T11:08:33;99894.91;;;14.01;46.78
35489;BME280;21602;55.670;37.578;2023-04-06T11:11:11;99891.78;;;13.93;45.93
35489;BME280;21602;55.670;37.578;2023-04-06T11:13:42;99892.97;;;13.85;45.34
35489;BME280;21602;55.670;37.578;2023-04-06T11:16:13;99894.84;;;13.84;46.89
35489;BME280;21602;55.670;37.578;2023-04-06T11:18:50;99888.72;;;14.01;45.13
35489;BME280;21602;55.670;37.578;2023-04-06T11:21:16;99892.75;;;14.03;45.55
35489;BME280;21602;55.670;37.578;2023-04-06T11:23:42;99893.09;;;14.07;45.18
35489;BME280;21602;55.670;37.578;2023-04-06T11:26:12;99885.78;;;14.19;46.73
35489;BME280;21602;55.670;37.578;2023-04-06T11:28:41;99895.47;;;14.20;44.85
35489;BME280;21602;55.670;37.578;2023-04-06T11:31:07;99898.47;;;14.07;44.42
35489;BME280;21602;55.670;37.578;2023-04-06T11:33:35;99891.31;;;13.96;44.65
35489;BME280;21602;55.670;37.578;2023-04-06T11:36:02;99890.00;;;13.81;44.94
35489;BME280;21602;55.670;37.578;2023-04-06T11:38:29;99887.88;;;13.83;45.29
35489;BME280;21602;55.670;37.578;2023-04-06T11:40:56;99883.34;;;14.01;46.26
35489;BME280;21602;55.670;37.578;2023-04-06T11:43:31;99878.94;;;14.12;45.18
35489;BME280;21602;55.670;37.578;2023-04-06T11:46:04;99880.97;;;14.21;44.60
35489;BME280;21602;55.670;37.578;2023-04-06T11:48:30;99885.28;;;14.22;44.74
35489;BME280;21602;55.670;37.578;2023-04-06T11:50:58;99881.31;;;14.25;44.45
35489;BME280;21602;55.670;37.578;2023-04-06T11:53:29;99883.00;;;14.14;45.55
35489;BME280;21602;55.670;37.578;2023-04-06T11:55:56;99871.78;;;14.17;44.31
35489;BME280;21602;55.670;37.578;2023-04-06T11:58:22;99875.78;;;14.31;44.81
35489;BME280;21602;55.670;37.578;2023-04-06T12:00:48;99879.00;;;14.33;44.30
35489;BME280;21602;55.670;37.578;2023-04-06T12:03:17;99864.63;;;14.40;44.71
35489;BME280;21602;55.670;37.578;2023-04-06T12:05:43;99860.88;;;14.41;44.99
35489;BME280;21602;55.670;37.578;2023-04-06T12:08:09;99860.38;;;14.44;46.39
35489;BME280;21602;55.670;37.578;2023-04-06T12:10:35;99879.03;;;14.50;43.76
35489;BME280;21602;55.670;37.578;2023-04-06T12:13:01;99875.09;;;14.41;43.94
35489;BME280;21602;55.670;37.578;2023-04-06T12:15:27;99875.69;;;14.26;44.82
35489;BME280;21602;55.670;37.578;2023-04-06T12:17:52;99863.97;;;14.16;44.68
35489;BME280;21602;55.670;37.578;2023-04-06T12:20:18;99869.66;;;14.19;44.49
35489;BME280;21602;55.670;37.578;2023-04-06T12:22:44;99868.19;;;14.28;44.32
35489;BME280;21602;55.670;37.578;2023-04-06T12:25:10;99871.94;;;14.27;44.48
35489;BME280;21602;55.670;37.578;2023-04-06T12:27:37;99860.06;;;14.23;43.83
35489;BME280;21602;55.670;37.578;2023-04-06T12:30:04;99854.38;;;14.20;43.87
35489;BME280;21602;55.670;37.578;2023-04-06T12:32:31;99854.69;;;14.23;45.15
35489;BME280;21602;55.670;37.578;2023-04-06T12:34:56;99858.09;;;14.35;44.27
35489;BME280;21602;55.670;37.578;2023-04-06T12:37:22;99858.00;;;14.47;44.33
35489;BME280;21602;55.670;37.578;2023-04-06T12:39:48;99867.00;;;14.53;44.46
35489;BME280;21602;55.670;37.578;2023-04-06T12:42:20;99855.75;;;14.56;44.55
35489;BME280;21602;55.670;37.578;2023-04-06T12:44:46;99856.25;;;14.53;44.30
35489;BME280;21602;55.670;37.578;2023-04-06T12:47:14;99859.69;;;14.48;43.59
35489;BME280;21602;55.670;37.578;2023-04-06T12:49:41;99857.38;;;14.57;44.36
35489;BME280;21602;55.670;37.578;2023-04-06T12:52:08;99863.47;;;14.69;44.29
35489;BME280;21602;55.670;37.578;2023-04-06T12:54:36;99856.94;;;14.65;43.14
35489;BME280;21602;55.670;37.578;2023-04-06T12:57:02;99855.00;;;14.60;43.49
35489;BME280;21602;55.670;37.578;2023-04-06T12:59:28;99854.19;;;14.60;44.47
35489;BME280;21602;55.670;37.578;2023-04-06T13:02:00;99854.19;;;14.60;43.60
35489;BME280;21602;55.670;37.578;2023-04-06T13:04:29;99863.81;;;14.56;43.79
35489;BME280;21602;55.670;37.578;2023-04-06T13:06:54;99858.91;;;14.36;43.80